Noatak Airport
PAWN : now visible

Airfield :











YOU CAN JOIN US ON...

 
LOGIN :

Register | Disclaimer

   EN    FR    IT 

 









Legend :    VFR   Marginal VFR   IFR   Intensive IFR   Very Intensive IFR
Visi :
Ceiling :
>= 8 km
>= 3000ft
5 to 8 km
1000 to 3000 ft
1500m to 5 km
500 to 1000 ft
800 to 1500m
200 to 500 ft
< 800m
< 200 ft
Symbols :   Thunderstorms  Fog  Heavy snow  Heavy precipitations  Wind > 20 kt






- Airport Elevation : 88 ft
- IATA code : WTK


PAWN - Noatak

CURRENT METAR :
  • 072219Z AUTO 00000KT 10SM BKN019 M14/M19 A3009 RMK AO2 FZRANO

EXPIRED METARs :
  • 072203Z AUTO 00000KT 10SM FEW014 SCT019 M15/M20 A3009 RMK AO2 FZRANO
  • 072156Z AUTO 33003KT 10SM FEW014 BKN019 M15/M20 A3009 RMK AO2 SLP204 T11501200 FZRANO
  • 072146Z AUTO 34004KT 10SM BKN017 M16/M20 A3009 RMK AO2 FZRANO
  • 072116Z AUTO 31003KT 10SM SCT017 M17/M21 A3009 RMK AO2 FZRANO
  • 072056Z AUTO 33003KT 4SM HZ BKN015 M18/M22 A3008 RMK AO2 SLP202 T11781217 52006 FZRANO
  • 072046Z AUTO 32004KT 10SM BKN015 M18/M22 A3008 RMK AO2 FZRANO
  • 071956Z AUTO 32004KT 10SM CLR M20/M24 A3008 RMK AO2 SLP200 T12001239 FZRANO

TAF N/A



MET'MAP, your aeronautical weather chart ! - Copyright ORBIFLY December 2007 - Disclaimer

ORBIFLY MET'MAP TEAM :

Programming & Development : Alexandra Zaïnal
Concept & original design : Baudouin d'Aumeries
Assistance for programming : Marc-Olivier Méhu
Technical & hardware support : Manuel Goepfert

Contact : metmap@orbifly.com




SOURCES & CREDITS :

   NOAA       Earth
Advisory